sensor_id;sensor_type;location;lat;lon;timestamp;P1;durP1;ratioP1;P2;durP2;ratioP2
12048;SDS011;6085;49.452;8.502;2023-02-07T00:02:41;2.78;;;2.58;;
12048;SDS011;6085;49.452;8.502;2023-02-07T00:06:44;4.15;;;3.13;;
12048;SDS011;6085;49.452;8.502;2023-02-07T00:10:46;3.22;;;2.92;;
12048;SDS011;6085;49.452;8.502;2023-02-07T00:14:49;3.80;;;2.70;;
12048;SDS011;6085;49.452;8.502;2023-02-07T00:18:51;2.75;;;2.40;;
12048;SDS011;6085;49.452;8.502;2023-02-07T00:22:54;2.95;;;2.47;;
12048;SDS011;6085;49.452;8.502;2023-02-07T00:26:57;3.63;;;2.50;;
12048;SDS011;6085;49.452;8.502;2023-02-07T00:31:04;3.10;;;2.78;;
12048;SDS011;6085;49.452;8.502;2023-02-07T00:35:07;2.60;;;2.40;;
12048;SDS011;6085;49.452;8.502;2023-02-07T00:39:10;3.00;;;2.70;;
12048;SDS011;6085;49.452;8.502;2023-02-07T00:43:13;2.90;;;2.70;;
12048;SDS011;6085;49.452;8.502;2023-02-07T00:47:17;2.80;;;2.50;;
12048;SDS011;6085;49.452;8.502;2023-02-07T00:51:18;3.38;;;2.70;;
12048;SDS011;6085;49.452;8.502;2023-02-07T00:55:20;3.08;;;2.83;;
12048;SDS011;6085;49.452;8.502;2023-02-07T00:59:22;2.85;;;2.65;;
12048;SDS011;6085;49.452;8.502;2023-02-07T01:03:25;3.03;;;2.80;;
12048;SDS011;6085;49.452;8.502;2023-02-07T01:07:27;3.17;;;2.88;;
12048;SDS011;6085;49.452;8.502;2023-02-07T01:11:29;5.13;;;2.90;;
12048;SDS011;6085;49.452;8.502;2023-02-07T01:15:34;3.10;;;2.63;;
12048;SDS011;6085;49.452;8.502;2023-02-07T01:19:38;3.03;;;2.75;;
12048;SDS011;6085;49.452;8.502;2023-02-07T01:23:40;2.97;;;2.67;;
12048;SDS011;6085;49.452;8.502;2023-02-07T01:27:42;3.92;;;3.00;;
12048;SDS011;6085;49.452;8.502;2023-02-07T01:31:44;3.30;;;3.00;;
12048;SDS011;6085;49.452;8.502;2023-02-07T01:35:48;3.50;;;3.20;;
12048;SDS011;6085;49.452;8.502;2023-02-07T01:39:50;3.25;;;2.83;;
12048;SDS011;6085;49.452;8.502;2023-02-07T01:43:52;3.70;;;3.40;;
12048;SDS011;6085;49.452;8.502;2023-02-07T01:47:57;4.05;;;3.65;;
12048;SDS011;6085;49.452;8.502;2023-02-07T01:52:03;4.68;;;3.42;;
12048;SDS011;6085;49.452;8.502;2023-02-07T01:56:09;5.03;;;3.60;;
12048;SDS011;6085;49.452;8.502;2023-02-07T02:00:14;3.72;;;3.40;;
12048;SDS011;6085;49.452;8.502;2023-02-07T02:04:17;4.10;;;3.70;;
12048;SDS011;6085;49.452;8.502;2023-02-07T02:08:21;3.78;;;3.38;;
12048;SDS011;6085;49.452;8.502;2023-02-07T02:12:30;4.22;;;3.47;;
12048;SDS011;6085;49.452;8.502;2023-02-07T02:16:47;4.68;;;3.88;;
12048;SDS011;6085;49.452;8.502;2023-02-07T02:21:07;3.47;;;3.10;;
12048;SDS011;6085;49.452;8.502;2023-02-07T02:30:08;4.25;;;3.20;;
12048;SDS011;6085;49.452;8.502;2023-02-07T02:34:32;3.70;;;3.40;;
12048;SDS011;6085;49.452;8.502;2023-02-07T02:38:41;4.15;;;3.50;;
12048;SDS011;6085;49.452;8.502;2023-02-07T02:42:49;4.50;;;3.22;;
12048;SDS011;6085;49.452;8.502;2023-02-07T02:46:54;4.68;;;3.17;;
12048;SDS011;6085;49.452;8.502;2023-02-07T02:50:59;3.53;;;3.20;;
12048;SDS011;6085;49.452;8.502;2023-02-07T02:55:01;5.78;;;3.97;;
12048;SDS011;6085;49.452;8.502;2023-02-07T02:59:08;5.90;;;3.50;;
12048;SDS011;6085;49.452;8.502;2023-02-07T03:03:31;4.38;;;3.70;;
12048;SDS011;6085;49.452;8.502;2023-02-07T03:07:43;5.50;;;3.65;;
12048;SDS011;6085;49.452;8.502;2023-02-07T03:11:54;4.00;;;3.55;;
12048;SDS011;6085;49.452;8.502;2023-02-07T03:16:02;4.97;;;4.15;;
12048;SDS011;6085;49.452;8.502;2023-02-07T03:20:11;7.45;;;4.80;;
12048;SDS011;6085;49.452;8.502;2023-02-07T03:24:20;6.97;;;4.68;;
12048;SDS011;6085;49.452;8.502;2023-02-07T03:28:24;7.10;;;4.22;;
12048;SDS011;6085;49.452;8.502;2023-02-07T03:32:29;6.10;;;4.70;;
12048;SDS011;6085;49.452;8.502;2023-02-07T03:36:35;7.28;;;4.47;;
12048;SDS011;6085;49.452;8.502;2023-02-07T03:40:44;7.78;;;4.90;;
12048;SDS011;6085;49.452;8.502;2023-02-07T03:44:49;6.57;;;4.97;;
12048;SDS011;6085;49.452;8.502;2023-02-07T03:48:53;5.63;;;4.78;;
12048;SDS011;6085;49.452;8.502;2023-02-07T03:52:55;6.07;;;4.80;;
12048;SDS011;6085;49.452;8.502;2023-02-07T03:56:58;6.18;;;4.60;;
12048;SDS011;6085;49.452;8.502;2023-02-07T04:01:00;4.93;;;4.43;;
12048;SDS011;6085;49.452;8.502;2023-02-07T04:05:02;5.88;;;4.72;;
12048;SDS011;6085;49.452;8.502;2023-02-07T04:09:04;6.68;;;4.88;;
12048;SDS011;6085;49.452;8.502;2023-02-07T04:13:08;6.32;;;4.72;;
12048;SDS011;6085;49.452;8.502;2023-02-07T04:17:10;6.43;;;4.60;;
12048;SDS011;6085;49.452;8.502;2023-02-07T04:21:12;5.65;;;4.93;;
12048;SDS011;6085;49.452;8.502;2023-02-07T04:25:14;8.85;;;5.63;;
12048;SDS011;6085;49.452;8.502;2023-02-07T04:29:17;10.70;;;5.47;;
12048;SDS011;6085;49.452;8.502;2023-02-07T04:33:19;6.97;;;5.53;;
12048;SDS011;6085;49.452;8.502;2023-02-07T04:37:21;6.28;;;5.22;;
12048;SDS011;6085;49.452;8.502;2023-02-07T04:41:23;7.00;;;5.25;;
12048;SDS011;6085;49.452;8.502;2023-02-07T04:45:26;6.18;;;5.10;;
12048;SDS011;6085;49.452;8.502;2023-02-07T04:49:28;6.28;;;4.95;;
12048;SDS011;6085;49.452;8.502;2023-02-07T04:53:30;8.93;;;5.63;;
12048;SDS011;6085;49.452;8.502;2023-02-07T04:57:32;7.78;;;5.82;;
12048;SDS011;6085;49.452;8.502;2023-02-07T05:01:35;7.78;;;5.47;;
12048;SDS011;6085;49.452;8.502;2023-02-07T05:05:37;7.60;;;5.68;;
12048;SDS011;6085;49.452;8.502;2023-02-07T05:09:39;8.68;;;6.15;;
12048;SDS011;6085;49.452;8.502;2023-02-07T05:13:41;7.70;;;5.80;;
12048;SDS011;6085;49.452;8.502;2023-02-07T05:17:44;7.38;;;5.63;;
12048;SDS011;6085;49.452;8.502;2023-02-07T05:21:46;10.35;;;6.15;;
12048;SDS011;6085;49.452;8.502;2023-02-07T05:25:48;8.73;;;6.35;;
12048;SDS011;6085;49.452;8.502;2023-02-07T05:29:50;9.77;;;7.07;;
12048;SDS011;6085;49.452;8.502;2023-02-07T05:33:54;8.98;;;7.20;;
12048;SDS011;6085;49.452;8.502;2023-02-07T05:37:56;9.48;;;6.95;;
12048;SDS011;6085;49.452;8.502;2023-02-07T05:41:58;10.52;;;7.05;;
12048;SDS011;6085;49.452;8.502;2023-02-07T05:46:00;11.15;;;6.82;;
12048;SDS011;6085;49.452;8.502;2023-02-07T05:50:04;8.80;;;6.50;;
12048;SDS011;6085;49.452;8.502;2023-02-07T05:54:06;8.23;;;6.32;;
12048;SDS011;6085;49.452;8.502;2023-02-07T05:58:08;8.77;;;6.40;;
12048;SDS011;6085;49.452;8.502;2023-02-07T06:02:11;9.50;;;6.60;;
12048;SDS011;6085;49.452;8.502;2023-02-07T06:06:14;10.80;;;7.18;;
12048;SDS011;6085;49.452;8.502;2023-02-07T06:10:16;8.45;;;6.45;;
12048;SDS011;6085;49.452;8.502;2023-02-07T06:14:18;9.63;;;6.38;;
12048;SDS011;6085;49.452;8.502;2023-02-07T06:18:21;11.70;;;6.93;;
12048;SDS011;6085;49.452;8.502;2023-02-07T06:22:25;13.05;;;7.47;;
12048;SDS011;6085;49.452;8.502;2023-02-07T06:26:27;12.23;;;7.25;;
12048;SDS011;6085;49.452;8.502;2023-02-07T06:30:29;12.68;;;7.68;;
12048;SDS011;6085;49.452;8.502;2023-02-07T06:34:31;9.10;;;6.85;;
12048;SDS011;6085;49.452;8.502;2023-02-07T06:38:34;10.50;;;7.25;;
12048;SDS011;6085;49.452;8.502;2023-02-07T06:42:36;11.98;;;7.50;;
12048;SDS011;6085;49.452;8.502;2023-02-07T06:46:38;13.20;;;7.88;;
12048;SDS011;6085;49.452;8.502;2023-02-07T06:50:40;9.93;;;7.13;;
12048;SDS011;6085;49.452;8.502;2023-02-07T06:54:43;11.57;;;7.18;;
12048;SDS011;6085;49.452;8.502;2023-02-07T06:58:45;12.20;;;7.25;;
12048;SDS011;6085;49.452;8.502;2023-02-07T07:02:47;8.70;;;6.88;;
12048;SDS011;6085;49.452;8.502;2023-02-07T07:06:49;12.43;;;7.45;;
12048;SDS011;6085;49.452;8.502;2023-02-07T07:10:53;14.38;;;7.65;;
12048;SDS011;6085;49.452;8.502;2023-02-07T07:14:56;11.55;;;8.07;;
12048;SDS011;6085;49.452;8.502;2023-02-07T07:18:58;12.05;;;8.00;;
12048;SDS011;6085;49.452;8.502;2023-02-07T07:23:00;10.98;;;7.72;;
12048;SDS011;6085;49.452;8.502;2023-02-07T07:27:04;12.75;;;8.32;;
12048;SDS011;6085;49.452;8.502;2023-02-07T07:31:07;14.30;;;8.13;;
12048;SDS011;6085;49.452;8.502;2023-02-07T07:35:12;11.40;;;7.47;;
12048;SDS011;6085;49.452;8.502;2023-02-07T07:39:16;13.77;;;7.97;;
12048;SDS011;6085;49.452;8.502;2023-02-07T07:43:21;11.63;;;7.97;;
12048;SDS011;6085;49.452;8.502;2023-02-07T07:47:23;10.85;;;7.55;;
12048;SDS011;6085;49.452;8.502;2023-02-07T07:51:26;12.02;;;8.63;;
12048;SDS011;6085;49.452;8.502;2023-02-07T07:55:28;11.38;;;8.57;;
12048;SDS011;6085;49.452;8.502;2023-02-07T07:59:31;12.00;;;8.77;;
12048;SDS011;6085;49.452;8.502;2023-02-07T08:03:33;9.70;;;7.57;;
12048;SDS011;6085;49.452;8.502;2023-02-07T08:07:35;12.00;;;8.80;;
12048;SDS011;6085;49.452;8.502;2023-02-07T08:11:37;9.75;;;7.80;;
12048;SDS011;6085;49.452;8.502;2023-02-07T08:15:41;10.38;;;7.05;;
12048;SDS011;6085;49.452;8.502;2023-02-07T08:19:43;10.70;;;6.70;;
12048;SDS011;6085;49.452;8.502;2023-02-07T08:23:45;9.27;;;6.20;;
12048;SDS011;6085;49.452;8.502;2023-02-07T08:27:47;9.52;;;6.60;;
12048;SDS011;6085;49.452;8.502;2023-02-07T08:31:50;8.75;;;6.25;;
12048;SDS011;6085;49.452;8.502;2023-02-07T08:35:52;9.65;;;6.05;;
12048;SDS011;6085;49.452;8.502;2023-02-07T08:39:54;7.05;;;5.85;;
12048;SDS011;6085;49.452;8.502;2023-02-07T08:43:57;5.22;;;4.72;;
12048;SDS011;6085;49.452;8.502;2023-02-07T08:48:00;8.65;;;5.40;;
12048;SDS011;6085;49.452;8.502;2023-02-07T08:52:02;6.00;;;5.40;;
12048;SDS011;6085;49.452;8.502;2023-02-07T08:56:04;6.90;;;5.47;;
12048;SDS011;6085;49.452;8.502;2023-02-07T09:00:08;5.18;;;4.68;;
12048;SDS011;6085;49.452;8.502;2023-02-07T09:04:12;5.20;;;4.70;;
12048;SDS011;6085;49.452;8.502;2023-02-07T09:08:14;5.45;;;4.60;;
12048;SDS011;6085;49.452;8.502;2023-02-07T09:12:17;7.45;;;4.95;;
12048;SDS011;6085;49.452;8.502;2023-02-07T09:16:19;5.53;;;4.95;;
12048;SDS011;6085;49.452;8.502;2023-02-07T09:20:23;5.82;;;5.22;;
12048;SDS011;6085;49.452;8.502;2023-02-07T09:24:25;5.97;;;5.38;;
12048;SDS011;6085;49.452;8.502;2023-02-07T09:28:27;5.15;;;4.65;;
12048;SDS011;6085;49.452;8.502;2023-02-07T09:32:29;6.30;;;5.15;;
12048;SDS011;6085;49.452;8.502;2023-02-07T09:36:32;7.82;;;5.70;;
12048;SDS011;6085;49.452;8.502;2023-02-07T09:40:35;7.18;;;5.85;;
12048;SDS011;6085;49.452;8.502;2023-02-07T09:44:41;4.88;;;4.38;;
12048;SDS011;6085;49.452;8.502;2023-02-07T09:48:49;7.55;;;4.95;;
12048;SDS011;6085;49.452;8.502;2023-02-07T09:52:57;6.10;;;5.47;;
12048;SDS011;6085;49.452;8.502;2023-02-07T09:57:04;7.00;;;5.85;;
12048;SDS011;6085;49.452;8.502;2023-02-07T10:01:11;5.53;;;5.03;;
12048;SDS011;6085;49.452;8.502;2023-02-07T10:05:17;5.65;;;4.97;;
12048;SDS011;6085;49.452;8.502;2023-02-07T10:09:24;6.38;;;5.07;;
12048;SDS011;6085;49.452;8.502;2023-02-07T10:13:31;5.72;;;4.95;;
12048;SDS011;6085;49.452;8.502;2023-02-07T10:18:07;6.25;;;5.00;;
12048;SDS011;6085;49.452;8.502;2023-02-07T10:22:31;10.98;;;5.68;;
12048;SDS011;6085;49.452;8.502;2023-02-07T10:26:41;5.50;;;4.70;;
12048;SDS011;6085;49.452;8.502;2023-02-07T10:30:48;5.30;;;4.80;;
12048;SDS011;6085;49.452;8.502;2023-02-07T10:34:54;6.38;;;5.22;;
12048;SDS011;6085;49.452;8.502;2023-02-07T10:39:02;5.65;;;5.05;;
12048;SDS011;6085;49.452;8.502;2023-02-07T10:43:11;7.25;;;4.88;;
12048;SDS011;6085;49.452;8.502;2023-02-07T10:47:22;6.00;;;5.13;;
12048;SDS011;6085;49.452;8.502;2023-02-07T10:51:26;5.57;;;4.75;;
12048;SDS011;6085;49.452;8.502;2023-02-07T10:55:34;5.10;;;4.60;;
12048;SDS011;6085;49.452;8.502;2023-02-07T10:59:41;6.50;;;4.93;;
12048;SDS011;6085;49.452;8.502;2023-02-07T11:03:45;6.70;;;4.65;;
12048;SDS011;6085;49.452;8.502;2023-02-07T11:07:54;6.63;;;5.10;;
12048;SDS011;6085;49.452;8.502;2023-02-07T11:11:58;5.28;;;4.47;;
12048;SDS011;6085;49.452;8.502;2023-02-07T11:16:02;6.55;;;4.88;;
12048;SDS011;6085;49.452;8.502;2023-02-07T11:20:10;8.10;;;4.80;;
12048;SDS011;6085;49.452;8.502;2023-02-07T11:24:23;7.28;;;4.60;;
12048;SDS011;6085;49.452;8.502;2023-02-07T11:28:29;5.93;;;4.15;;
12048;SDS011;6085;49.452;8.502;2023-02-07T11:32:33;5.50;;;4.13;;
12048;SDS011;6085;49.452;8.502;2023-02-07T11:36:37;7.57;;;4.93;;
12048;SDS011;6085;49.452;8.502;2023-02-07T11:40:43;4.85;;;4.40;;
12048;SDS011;6085;49.452;8.502;2023-02-07T11:44:50;7.13;;;5.28;;
12048;SDS011;6085;49.452;8.502;2023-02-07T11:48:54;6.30;;;4.55;;
12048;SDS011;6085;49.452;8.502;2023-02-07T11:52:59;5.55;;;4.28;;
12048;SDS011;6085;49.452;8.502;2023-02-07T11:57:02;4.50;;;4.10;;
12048;SDS011;6085;49.452;8.502;2023-02-07T12:01:06;5.95;;;3.80;;
12048;SDS011;6085;49.452;8.502;2023-02-07T12:05:13;4.28;;;3.88;;
12048;SDS011;6085;49.452;8.502;2023-02-07T12:09:20;5.10;;;4.10;;
12048;SDS011;6085;49.452;8.502;2023-02-07T12:13:31;6.25;;;4.53;;
12048;SDS011;6085;49.452;8.502;2023-02-07T12:17:40;5.00;;;4.20;;
12048;SDS011;6085;49.452;8.502;2023-02-07T12:21:52;5.15;;;3.70;;
12048;SDS011;6085;49.452;8.502;2023-02-07T12:25:59;3.83;;;3.53;;
12048;SDS011;6085;49.452;8.502;2023-02-07T12:30:09;5.65;;;4.10;;
12048;SDS011;6085;49.452;8.502;2023-02-07T12:34:19;4.47;;;3.80;;
12048;SDS011;6085;49.452;8.502;2023-02-07T12:38:29;7.45;;;4.70;;
12048;SDS011;6085;49.452;8.502;2023-02-07T12:42:37;4.72;;;4.20;;
12048;SDS011;6085;49.452;8.502;2023-02-07T12:46:45;4.32;;;3.92;;
12048;SDS011;6085;49.452;8.502;2023-02-07T12:51:02;4.53;;;3.67;;
12048;SDS011;6085;49.452;8.502;2023-02-07T12:55:21;4.25;;;3.95;;
12048;SDS011;6085;49.452;8.502;2023-02-07T12:59:33;4.10;;;3.70;;
12048;SDS011;6085;49.452;8.502;2023-02-07T13:03:49;4.60;;;3.83;;
12048;SDS011;6085;49.452;8.502;2023-02-07T13:08:19;4.22;;;3.60;;
12048;SDS011;6085;49.452;8.502;2023-02-07T13:12:32;4.18;;;3.65;;
12048;SDS011;6085;49.452;8.502;2023-02-07T13:16:40;5.53;;;4.07;;
12048;SDS011;6085;49.452;8.502;2023-02-07T13:20:50;3.65;;;3.35;;
12048;SDS011;6085;49.452;8.502;2023-02-07T13:25:00;5.20;;;3.60;;
12048;SDS011;6085;49.452;8.502;2023-02-07T13:29:11;3.95;;;3.55;;
12048;SDS011;6085;49.452;8.502;2023-02-07T13:33:21;4.72;;;4.00;;
12048;SDS011;6085;49.452;8.502;2023-02-07T13:37:30;4.18;;;3.78;;
12048;SDS011;6085;49.452;8.502;2023-02-07T13:41:42;5.05;;;4.55;;
12048;SDS011;6085;49.452;8.502;2023-02-07T13:45:58;5.07;;;4.07;;
12048;SDS011;6085;49.452;8.502;2023-02-07T13:50:11;4.43;;;3.83;;
12048;SDS011;6085;49.452;8.502;2023-02-07T13:54:28;6.38;;;3.95;;
12048;SDS011;6085;49.452;8.502;2023-02-07T13:58:51;5.90;;;4.18;;
12048;SDS011;6085;49.452;8.502;2023-02-07T14:03:17;4.15;;;3.75;;
12048;SDS011;6085;49.452;8.502;2023-02-07T14:07:22;4.75;;;4.05;;
12048;SDS011;6085;49.452;8.502;2023-02-07T14:11:33;4.70;;;3.90;;
12048;SDS011;6085;49.452;8.502;2023-02-07T14:15:51;3.95;;;3.65;;
12048;SDS011;6085;49.452;8.502;2023-02-07T14:20:00;5.47;;;4.10;;
12048;SDS011;6085;49.452;8.502;2023-02-07T14:24:08;5.50;;;4.30;;
12048;SDS011;6085;49.452;8.502;2023-02-07T14:28:20;4.72;;;4.20;;
12048;SDS011;6085;49.452;8.502;2023-02-07T14:32:36;4.57;;;4.18;;
12048;SDS011;6085;49.452;8.502;2023-02-07T14:36:42;4.38;;;3.97;;
12048;SDS011;6085;49.452;8.502;2023-02-07T14:40:54;3.78;;;3.47;;
12048;SDS011;6085;49.452;8.502;2023-02-07T14:45:03;4.50;;;3.70;;
12048;SDS011;6085;49.452;8.502;2023-02-07T14:49:05;4.43;;;4.03;;
12048;SDS011;6085;49.452;8.502;2023-02-07T14:53:16;5.28;;;4.18;;
12048;SDS011;6085;49.452;8.502;2023-02-07T14:57:22;4.85;;;4.35;;
12048;SDS011;6085;49.452;8.502;2023-02-07T15:01:32;5.80;;;4.65;;
12048;SDS011;6085;49.452;8.502;2023-02-07T15:05:35;5.25;;;4.75;;
12048;SDS011;6085;49.452;8.502;2023-02-07T15:09:39;5.70;;;5.10;;
12048;SDS011;6085;49.452;8.502;2023-02-07T15:13:44;5.22;;;4.50;;
12048;SDS011;6085;49.452;8.502;2023-02-07T15:17:48;4.45;;;4.05;;
12048;SDS011;6085;49.452;8.502;2023-02-07T15:21:51;5.32;;;4.78;;
12048;SDS011;6085;49.452;8.502;2023-02-07T15:25:55;7.32;;;5.65;;
12048;SDS011;6085;49.452;8.502;2023-02-07T15:30:13;5.78;;;5.18;;
12048;SDS011;6085;49.452;8.502;2023-02-07T15:34:19;6.00;;;5.07;;
12048;SDS011;6085;49.452;8.502;2023-02-07T15:38:23;8.40;;;5.97;;
12048;SDS011;6085;49.452;8.502;2023-02-07T15:42:27;7.35;;;5.75;;
12048;SDS011;6085;49.452;8.502;2023-02-07T15:46:42;6.40;;;5.25;;
12048;SDS011;6085;49.452;8.502;2023-02-07T15:50:50;6.65;;;5.72;;
12048;SDS011;6085;49.452;8.502;2023-02-07T15:54:53;6.90;;;5.65;;
12048;SDS011;6085;49.452;8.502;2023-02-07T15:58:58;8.73;;;5.70;;
12048;SDS011;6085;49.452;8.502;2023-02-07T16:03:11;6.55;;;5.35;;
12048;SDS011;6085;49.452;8.502;2023-02-07T16:07:17;9.45;;;6.13;;
12048;SDS011;6085;49.452;8.502;2023-02-07T16:11:32;6.95;;;6.07;;
12048;SDS011;6085;49.452;8.502;2023-02-07T16:15:38;9.75;;;6.25;;
12048;SDS011;6085;49.452;8.502;2023-02-07T16:19:52;7.53;;;5.75;;
12048;SDS011;6085;49.452;8.502;2023-02-07T16:23:56;6.95;;;5.50;;
12048;SDS011;6085;49.452;8.502;2023-02-07T16:28:06;7.28;;;5.20;;
12048;SDS011;6085;49.452;8.502;2023-02-07T16:32:12;7.70;;;5.90;;
12048;SDS011;6085;49.452;8.502;2023-02-07T16:36:16;8.38;;;5.75;;
12048;SDS011;6085;49.452;8.502;2023-02-07T16:40:19;7.70;;;5.97;;
12048;SDS011;6085;49.452;8.502;2023-02-07T16:44:23;7.68;;;5.70;;
12048;SDS011;6085;49.452;8.502;2023-02-07T16:48:28;7.80;;;5.70;;
12048;SDS011;6085;49.452;8.502;2023-02-07T16:52:33;8.88;;;5.82;;
12048;SDS011;6085;49.452;8.502;2023-02-07T16:56:35;8.18;;;6.03;;
12048;SDS011;6085;49.452;8.502;2023-02-07T17:00:39;8.45;;;6.20;;
12048;SDS011;6085;49.452;8.502;2023-02-07T17:04:42;10.20;;;6.15;;
12048;SDS011;6085;49.452;8.502;2023-02-07T17:08:44;7.80;;;6.03;;
12048;SDS011;6085;49.452;8.502;2023-02-07T17:12:46;9.60;;;6.40;;
12048;SDS011;6085;49.452;8.502;2023-02-07T17:16:48;9.88;;;6.35;;
12048;SDS011;6085;49.452;8.502;2023-02-07T17:20:52;11.93;;;6.72;;
12048;SDS011;6085;49.452;8.502;2023-02-07T17:24:54;11.15;;;7.35;;
12048;SDS011;6085;49.452;8.502;2023-02-07T17:28:58;8.27;;;6.57;;
12048;SDS011;6085;49.452;8.502;2023-02-07T17:33:00;8.43;;;6.30;;
12048;SDS011;6085;49.452;8.502;2023-02-07T17:37:03;9.57;;;6.57;;
12048;SDS011;6085;49.452;8.502;2023-02-07T17:41:05;10.35;;;6.97;;
12048;SDS011;6085;49.452;8.502;2023-02-07T17:45:09;9.07;;;6.18;;
12048;SDS011;6085;49.452;8.502;2023-02-07T17:49:11;10.15;;;6.93;;
12048;SDS011;6085;49.452;8.502;2023-02-07T17:53:18;9.88;;;6.30;;
12048;SDS011;6085;49.452;8.502;2023-02-07T17:57:22;10.65;;;6.70;;
12048;SDS011;6085;49.452;8.502;2023-02-07T18:01:24;11.02;;;6.60;;
12048;SDS011;6085;49.452;8.502;2023-02-07T18:05:26;8.55;;;6.03;;
12048;SDS011;6085;49.452;8.502;2023-02-07T18:09:29;8.77;;;6.43;;
12048;SDS011;6085;49.452;8.502;2023-02-07T18:13:31;11.68;;;8.48;;
12048;SDS011;6085;49.452;8.502;2023-02-07T18:17:33;14.73;;;9.07;;
12048;SDS011;6085;49.452;8.502;2023-02-07T18:21:36;11.25;;;7.65;;
12048;SDS011;6085;49.452;8.502;2023-02-07T18:25:41;8.32;;;6.45;;
12048;SDS011;6085;49.452;8.502;2023-02-07T18:29:47;8.43;;;6.30;;
12048;SDS011;6085;49.452;8.502;2023-02-07T18:33:49;10.98;;;6.45;;
12048;SDS011;6085;49.452;8.502;2023-02-07T18:37:52;8.77;;;6.43;;
12048;SDS011;6085;49.452;8.502;2023-02-07T18:41:55;9.93;;;6.20;;
12048;SDS011;6085;49.452;8.502;2023-02-07T18:45:58;8.95;;;6.00;;
12048;SDS011;6085;49.452;8.502;2023-02-07T18:50:00;12.23;;;6.30;;
12048;SDS011;6085;49.452;8.502;2023-02-07T18:54:02;8.07;;;5.82;;
12048;SDS011;6085;49.452;8.502;2023-02-07T18:58:06;8.68;;;5.88;;
12048;SDS011;6085;49.452;8.502;2023-02-07T19:02:09;8.60;;;5.72;;
12048;SDS011;6085;49.452;8.502;2023-02-07T19:06:12;9.25;;;6.47;;
12048;SDS011;6085;49.452;8.502;2023-02-07T19:10:15;10.23;;;6.53;;
12048;SDS011;6085;49.452;8.502;2023-02-07T19:14:20;8.88;;;5.70;;
12048;SDS011;6085;49.452;8.502;2023-02-07T19:18:23;10.52;;;5.78;;
12048;SDS011;6085;49.452;8.502;2023-02-07T19:22:25;8.40;;;5.93;;
12048;SDS011;6085;49.452;8.502;2023-02-07T19:26:28;8.57;;;6.00;;
12048;SDS011;6085;49.452;8.502;2023-02-07T19:30:31;7.68;;;6.22;;
12048;SDS011;6085;49.452;8.502;2023-02-07T19:34:34;8.25;;;6.25;;
12048;SDS011;6085;49.452;8.502;2023-02-07T19:38:37;10.60;;;6.15;;
12048;SDS011;6085;49.452;8.502;2023-02-07T19:42:39;8.85;;;6.03;;
12048;SDS011;6085;49.452;8.502;2023-02-07T19:46:42;8.48;;;5.95;;
12048;SDS011;6085;49.452;8.502;2023-02-07T19:50:45;8.50;;;6.60;;
12048;SDS011;6085;49.452;8.502;2023-02-07T19:54:46;9.85;;;6.78;;
12048;SDS011;6085;49.452;8.502;2023-02-07T19:58:51;8.05;;;6.07;;
12048;SDS011;6085;49.452;8.502;2023-02-07T20:02:56;9.55;;;6.82;;
12048;SDS011;6085;49.452;8.502;2023-02-07T20:06:58;9.48;;;6.55;;
12048;SDS011;6085;49.452;8.502;2023-02-07T20:11:02;9.05;;;6.03;;
12048;SDS011;6085;49.452;8.502;2023-02-07T20:15:05;8.63;;;6.28;;
12048;SDS011;6085;49.452;8.502;2023-02-07T20:19:08;9.20;;;6.43;;
12048;SDS011;6085;49.452;8.502;2023-02-07T20:23:10;9.35;;;7.13;;
12048;SDS011;6085;49.452;8.502;2023-02-07T20:27:13;8.82;;;6.07;;
12048;SDS011;6085;49.452;8.502;2023-02-07T20:31:15;10.55;;;6.78;;
12048;SDS011;6085;49.452;8.502;2023-02-07T20:35:20;9.20;;;6.93;;
12048;SDS011;6085;49.452;8.502;2023-02-07T20:39:22;12.10;;;7.72;;
12048;SDS011;6085;49.452;8.502;2023-02-07T20:43:25;9.93;;;7.43;;
12048;SDS011;6085;49.452;8.502;2023-02-07T20:47:27;11.88;;;7.22;;
12048;SDS011;6085;49.452;8.502;2023-02-07T20:51:30;9.00;;;6.88;;
12048;SDS011;6085;49.452;8.502;2023-02-07T20:55:32;11.18;;;6.95;;
12048;SDS011;6085;49.452;8.502;2023-02-07T20:59:34;9.32;;;7.05;;
12048;SDS011;6085;49.452;8.502;2023-02-07T21:03:36;9.40;;;6.93;;
12048;SDS011;6085;49.452;8.502;2023-02-07T21:07:40;11.13;;;7.65;;
12048;SDS011;6085;49.452;8.502;2023-02-07T21:11:42;10.63;;;7.57;;
12048;SDS011;6085;49.452;8.502;2023-02-07T21:15:45;9.95;;;7.55;;
12048;SDS011;6085;49.452;8.502;2023-02-07T21:19:47;10.68;;;7.63;;
12048;SDS011;6085;49.452;8.502;2023-02-07T21:23:50;11.57;;;7.55;;
12048;SDS011;6085;49.452;8.502;2023-02-07T21:27:52;10.27;;;7.35;;
12048;SDS011;6085;49.452;8.502;2023-02-07T21:31:54;11.75;;;7.00;;
12048;SDS011;6085;49.452;8.502;2023-02-07T21:36:03;10.52;;;7.18;;
12048;SDS011;6085;49.452;8.502;2023-02-07T21:40:08;10.63;;;7.15;;
12048;SDS011;6085;49.452;8.502;2023-02-07T21:44:11;11.02;;;7.32;;
12048;SDS011;6085;49.452;8.502;2023-02-07T21:48:14;11.50;;;7.70;;
12048;SDS011;6085;49.452;8.502;2023-02-07T21:52:16;10.25;;;7.75;;
12048;SDS011;6085;49.452;8.502;2023-02-07T21:56:20;11.63;;;7.57;;
12048;SDS011;6085;49.452;8.502;2023-02-07T22:00:23;12.15;;;8.15;;
12048;SDS011;6085;49.452;8.502;2023-02-07T22:04:25;12.70;;;7.90;;
12048;SDS011;6085;49.452;8.502;2023-02-07T22:08:28;11.15;;;7.80;;
12048;SDS011;6085;49.452;8.502;2023-02-07T22:12:32;9.93;;;7.40;;
12048;SDS011;6085;49.452;8.502;2023-02-07T22:16:34;11.98;;;8.90;;
12048;SDS011;6085;49.452;8.502;2023-02-07T22:20:36;13.85;;;7.88;;
12048;SDS011;6085;49.452;8.502;2023-02-07T22:24:38;14.38;;;8.38;;
12048;SDS011;6085;49.452;8.502;2023-02-07T22:28:42;10.75;;;8.02;;
12048;SDS011;6085;49.452;8.502;2023-02-07T22:32:44;12.02;;;8.23;;
12048;SDS011;6085;49.452;8.502;2023-02-07T22:36:46;11.85;;;8.45;;
12048;SDS011;6085;49.452;8.502;2023-02-07T22:40:48;14.13;;;8.95;;
12048;SDS011;6085;49.452;8.502;2023-02-07T22:44:51;11.02;;;8.45;;
12048;SDS011;6085;49.452;8.502;2023-02-07T22:48:53;11.68;;;8.18;;
12048;SDS011;6085;49.452;8.502;2023-02-07T22:52:55;10.93;;;7.97;;
12048;SDS011;6085;49.452;8.502;2023-02-07T22:56:57;11.77;;;7.85;;
12048;SDS011;6085;49.452;8.502;2023-02-07T23:01:01;11.73;;;7.82;;
12048;SDS011;6085;49.452;8.502;2023-02-07T23:05:04;13.95;;;9.93;;
12048;SDS011;6085;49.452;8.502;2023-02-07T23:09:06;12.43;;;8.55;;
12048;SDS011;6085;49.452;8.502;2023-02-07T23:13:08;12.93;;;8.02;;
12048;SDS011;6085;49.452;8.502;2023-02-07T23:17:11;10.95;;;7.28;;
12048;SDS011;6085;49.452;8.502;2023-02-07T23:21:14;11.70;;;8.23;;
12048;SDS011;6085;49.452;8.502;2023-02-07T23:25:18;12.25;;;8.02;;
12048;SDS011;6085;49.452;8.502;2023-02-07T23:29:20;12.52;;;8.30;;
12048;SDS011;6085;49.452;8.502;2023-02-07T23:33:23;10.23;;;7.65;;
12048;SDS011;6085;49.452;8.502;2023-02-07T23:37:25;12.15;;;7.55;;
12048;SDS011;6085;49.452;8.502;2023-02-07T23:41:27;9.50;;;6.60;;
12048;SDS011;6085;49.452;8.502;2023-02-07T23:45:29;10.55;;;7.03;;
12048;SDS011;6085;49.452;8.502;2023-02-07T23:49:32;10.38;;;7.82;;
12048;SDS011;6085;49.452;8.502;2023-02-07T23:53:35;11.25;;;7.60;;
12048;SDS011;6085;49.452;8.502;2023-02-07T23:57:36;12.23;;;7.50;;
